createdAt,value
2023-02-17T00:00:34.761Z,101024.63
2023-02-17T00:03:01.561Z,101016.50
2023-02-17T00:05:28.260Z,101024.81
2023-02-17T00:07:54.942Z,101026.63
2023-02-17T00:10:21.588Z,101019.28
2023-02-17T00:12:48.314Z,101024.34
2023-02-17T00:15:14.977Z,101017.28
2023-02-17T00:17:41.725Z,101011.03
2023-02-17T00:20:08.630Z,101016.13
2023-02-17T00:22:36.153Z,101007.69
2023-02-17T00:25:02.826Z,101005.47
2023-02-17T00:27:29.419Z,101008.44
2023-02-17T00:29:56.184Z,101009.34
2023-02-17T00:32:22.846Z,101009.41
2023-02-17T00:34:49.602Z,101007.59
2023-02-17T00:37:16.249Z,100999.84
2023-02-17T00:39:42.902Z,101006.66
2023-02-17T00:42:09.600Z,101005.50
2023-02-17T00:44:36.279Z,100998.31
2023-02-17T00:47:02.879Z,101003.53
2023-02-17T00:49:29.577Z,101000.41
2023-02-17T00:51:59.948Z,101004.81
2023-02-17T00:54:26.630Z,101004.06
2023-02-17T00:56:53.360Z,101010.69
2023-02-17T00:59:20.159Z,101014.63
2023-02-17T01:01:47.014Z,101018.03
2023-02-17T01:04:13.776Z,101008.25
2023-02-17T01:06:40.754Z,101007.69
2023-02-17T01:09:09.330Z,101007.63
2023-02-17T01:11:36.548Z,101009.09
2023-02-17T01:14:04.966Z,100999.63
2023-02-17T01:16:35.533Z,100998.88
2023-02-17T01:19:04.964Z,100999.16
2023-02-17T01:21:33.321Z,100997.47
2023-02-17T01:24:03.127Z,101003.41
2023-02-17T01:26:32.514Z,101008.66
2023-02-17T01:28:59.759Z,101000.16
2023-02-17T01:31:28.182Z,100994.66
2023-02-17T01:33:57.534Z,100997.53
2023-02-17T01:36:24.395Z,100984.88
2023-02-17T01:38:51.085Z,100986.06
2023-02-17T01:41:20.053Z,100985.66
2023-02-17T01:44:11.573Z,100979.09
2023-02-17T01:46:40.650Z,100986.97
2023-02-17T01:49:33.531Z,100969.97
2023-02-17T01:52:21.249Z,100984.50
2023-02-17T01:54:57.901Z,100975.94
2023-02-17T01:57:29.758Z,100982.44
2023-02-17T01:59:56.906Z,100975.88
2023-02-17T02:02:23.746Z,100971.69
2023-02-17T02:04:53.263Z,100963.22
2023-02-17T02:07:29.031Z,100967.94
2023-02-17T02:09:58.388Z,100967.38
2023-02-17T02:12:28.760Z,100965.91
2023-02-17T02:15:00.662Z,100971.03
2023-02-17T02:18:12.050Z,100961.81
2023-02-17T02:21:01.403Z,100960.69
2023-02-17T02:24:09.464Z,100962.28
2023-02-17T02:26:49.958Z,100951.50
2023-02-17T02:29:28.763Z,100954.28
2023-02-17T02:32:14.083Z,100950.25
2023-02-17T02:34:49.783Z,100945.84
2023-02-17T02:37:29.779Z,100958.56
2023-02-17T02:40:01.494Z,100937.81
2023-02-17T02:42:28.235Z,100936.69
2023-02-17T02:44:54.826Z,100936.22
2023-02-17T02:47:45.860Z,100937.81
2023-02-17T02:50:45.316Z,100943.03
2023-02-17T02:53:27.060Z,100939.06
2023-02-17T02:56:17.079Z,100945.91
2023-02-17T02:59:06.528Z,100946.31
2023-02-17T03:01:46.390Z,100948.34
2023-02-17T03:04:31.466Z,100954.44
2023-02-17T03:07:25.844Z,100947.63
2023-02-17T03:09:56.047Z,100953.25
2023-02-17T03:12:24.019Z,100942.31
2023-02-17T03:14:59.210Z,100952.13
2023-02-17T03:17:25.808Z,100948.28
2023-02-17T03:19:52.960Z,100948.00
2023-02-17T03:22:26.571Z,100949.41
2023-02-17T03:24:53.279Z,100959.19
2023-02-17T03:27:20.009Z,100954.78
2023-02-17T03:29:46.652Z,100960.31
2023-02-17T03:32:13.369Z,100961.72
2023-02-17T03:34:40.068Z,100958.03
2023-02-17T03:37:06.691Z,100957.56
2023-02-17T03:39:33.424Z,100948.75
2023-02-17T03:42:00.036Z,100957.78
2023-02-17T03:44:26.668Z,100957.91
2023-02-17T03:46:53.536Z,100958.94
2023-02-17T03:49:20.621Z,100957.31
2023-02-17T03:51:48.446Z,100964.25
2023-02-17T03:54:15.097Z,100962.59
2023-02-17T03:56:41.707Z,100967.56
2023-02-17T03:59:08.309Z,100977.84
2023-02-17T04:01:35.185Z,100966.22
2023-02-17T04:04:02.014Z,100962.34
2023-02-17T04:06:28.726Z,100962.19
2023-02-17T04:08:55.350Z,100964.81
2023-02-17T04:11:22.142Z,100961.69
2023-02-17T04:13:48.752Z,100948.59
2023-02-17T04:16:15.545Z,100958.44
2023-02-17T04:18:42.252Z,100957.50
2023-02-17T04:21:08.903Z,100956.34
2023-02-17T04:23:37.202Z,100959.13
2023-02-17T04:26:05.261Z,100967.69
2023-02-17T04:28:32.032Z,100957.72
2023-02-17T04:30:59.898Z,100960.97
2023-02-17T04:33:27.159Z,100955.72
2023-02-17T04:35:53.859Z,100959.41
2023-02-17T04:38:20.566Z,100966.22
2023-02-17T04:40:47.258Z,100961.50
2023-02-17T04:43:13.929Z,100961.78
2023-02-17T04:45:40.597Z,100949.59
2023-02-17T04:48:07.288Z,100944.78
2023-02-17T04:50:33.938Z,100943.69
2023-02-17T04:53:00.628Z,100942.88
2023-02-17T04:55:27.427Z,100942.31
2023-02-17T04:57:54.086Z,100937.59
2023-02-17T05:00:21.289Z,100937.59
2023-02-17T05:02:47.971Z,100936.16
2023-02-17T05:05:14.607Z,100935.81
2023-02-17T05:07:44.153Z,100945.19
2023-02-17T05:10:12.567Z,100947.41
2023-02-17T05:12:39.349Z,100947.81
2023-02-17T05:15:06.783Z,100943.41
2023-02-17T05:17:33.765Z,100940.09
2023-02-17T05:20:00.494Z,100951.16
2023-02-17T05:22:27.593Z,100951.53
2023-02-17T05:24:54.348Z,100956.69
2023-02-17T05:27:21.054Z,100946.38
2023-02-17T05:29:47.750Z,100953.19
2023-02-17T05:32:14.457Z,100956.81
2023-02-17T05:34:41.159Z,100954.22
2023-02-17T05:37:07.790Z,100967.03
2023-02-17T05:39:34.489Z,100959.66
2023-02-17T05:42:01.171Z,100963.25
2023-02-17T05:44:28.106Z,100961.75
2023-02-17T05:46:54.714Z,100956.91
2023-02-17T05:49:21.482Z,100957.31
2023-02-17T05:51:48.273Z,100969.44
2023-02-17T05:54:14.955Z,100963.81
2023-02-17T05:56:41.554Z,100960.72
2023-02-17T05:59:08.184Z,100961.56
2023-02-17T06:01:37.043Z,100957.03
2023-02-17T06:04:04.413Z,100955.69
2023-02-17T06:06:31.109Z,100962.47
2023-02-17T06:08:57.735Z,100975.41
2023-02-17T06:11:24.401Z,100969.41
2023-02-17T06:13:51.124Z,100968.41
2023-02-17T06:16:18.000Z,100965.53
2023-02-17T06:18:44.719Z,100967.88
2023-02-17T06:21:11.599Z,100969.41
2023-02-17T06:23:38.305Z,100966.94
2023-02-17T06:26:05.277Z,100962.16
2023-02-17T06:28:34.208Z,100961.66
2023-02-17T06:31:01.811Z,100970.28
2023-02-17T06:33:28.545Z,100979.94
2023-02-17T06:35:55.182Z,100987.84
2023-02-17T06:38:21.963Z,100981.19
2023-02-17T06:40:48.664Z,100984.22
2023-02-17T06:43:15.288Z,100986.97
2023-02-17T06:45:42.167Z,100976.78
2023-02-17T06:48:08.816Z,100985.31
2023-02-17T06:50:35.526Z,100974.09
2023-02-17T06:53:02.226Z,100970.75
2023-02-17T06:55:29.094Z,100978.22
2023-02-17T06:57:55.720Z,100978.50
2023-02-17T07:00:22.814Z,100978.50
2023-02-17T07:02:49.610Z,100990.25
2023-02-17T07:05:16.439Z,100983.16
2023-02-17T07:07:43.075Z,100980.63
2023-02-17T07:10:10.152Z,100981.91
2023-02-17T07:12:36.962Z,100975.19
2023-02-17T07:15:03.888Z,100977.03
2023-02-17T07:17:30.490Z,100986.75
2023-02-17T07:19:57.160Z,100979.28
2023-02-17T07:22:23.850Z,100976.72
2023-02-17T07:24:50.503Z,100981.34
2023-02-17T07:27:17.133Z,100986.97
2023-02-17T07:29:43.873Z,100978.81
2023-02-17T07:32:10.468Z,100976.09
2023-02-17T07:34:37.986Z,100975.19
2023-02-17T07:37:04.800Z,100972.59
2023-02-17T07:39:31.503Z,100969.53
2023-02-17T07:41:58.121Z,100968.31
2023-02-17T07:44:25.017Z,100974.19
2023-02-17T07:46:51.631Z,100973.47
2023-02-17T07:49:18.279Z,100964.22
2023-02-17T07:51:44.964Z,100971.19
2023-02-17T07:54:11.677Z,100971.78
2023-02-17T07:56:38.279Z,100960.81
2023-02-17T07:59:09.022Z,100967.19
2023-02-17T08:01:35.652Z,100962.31
2023-02-17T08:04:02.321Z,100959.41
2023-02-17T08:06:29.054Z,100946.66
2023-02-17T08:08:55.868Z,100942.59
2023-02-17T08:11:22.700Z,100949.09
2023-02-17T08:13:49.291Z,100949.28
2023-02-17T08:16:15.896Z,100964.22
2023-02-17T08:18:42.682Z,100965.19
2023-02-17T08:21:09.358Z,100966.09
2023-02-17T08:23:36.013Z,100975.38
2023-02-17T08:26:02.632Z,100972.25
2023-02-17T08:28:29.278Z,100966.25
2023-02-17T08:30:56.486Z,100971.47
2023-02-17T08:33:23.276Z,100978.59
2023-02-17T08:35:49.926Z,100986.03
2023-02-17T08:38:16.654Z,100990.72
2023-02-17T08:40:43.523Z,100992.75
2023-02-17T08:43:10.163Z,100992.81
2023-02-17T08:45:36.979Z,100992.19
2023-02-17T08:48:04.668Z,100994.56
2023-02-17T08:50:32.636Z,100988.66
2023-02-17T08:52:59.503Z,100990.50
2023-02-17T08:55:26.122Z,100982.88
2023-02-17T08:57:52.901Z,100983.72
2023-02-17T09:00:19.860Z,100976.88
2023-02-17T09:02:46.496Z,100971.56
2023-02-17T09:05:14.237Z,100977.78
2023-02-17T09:07:41.190Z,100977.72
2023-02-17T09:10:09.876Z,100976.16
2023-02-17T09:12:36.656Z,100985.88
2023-02-17T09:15:03.493Z,100990.25
2023-02-17T09:17:30.330Z,100987.44
2023-02-17T09:19:57.087Z,100980.31
2023-02-17T09:22:31.886Z,100981.41
2023-02-17T09:24:59.153Z,100979.75
2023-02-17T09:27:25.846Z,100979.69
2023-02-17T09:29:52.460Z,100969.41
2023-02-17T09:32:19.277Z,100980.78
2023-02-17T09:34:45.969Z,100979.91
2023-02-17T09:37:12.743Z,100970.31
2023-02-17T09:39:39.359Z,100971.16
2023-02-17T09:42:06.814Z,100963.34
2023-02-17T09:44:44.888Z,100967.72
2023-02-17T09:47:25.153Z,100968.53
2023-02-17T09:49:56.662Z,100975.53
2023-02-17T09:52:27.903Z,100979.88
2023-02-17T09:55:01.107Z,100973.78
2023-02-17T09:57:33.686Z,100971.19
2023-02-17T10:00:30.782Z,100977.31
2023-02-17T10:03:18.252Z,100976.38
2023-02-17T10:06:12.706Z,100972.88
2023-02-17T10:08:48.575Z,100963.28
2023-02-17T10:11:21.490Z,100959.78
2023-02-17T10:13:50.657Z,100961.56
2023-02-17T10:16:26.104Z,100951.97
2023-02-17T10:19:12.222Z,100944.09
2023-02-17T10:21:44.506Z,100938.78
2023-02-17T10:24:11.251Z,100937.97
2023-02-17T10:26:37.898Z,100921.38
2023-02-17T10:29:12.226Z,100918.69
2023-02-17T10:31:44.111Z,100916.00
2023-02-17T10:34:37.182Z,100908.88
2023-02-17T10:37:12.672Z,100901.81
2023-02-17T10:39:57.218Z,100906.41
2023-02-17T10:42:36.381Z,100910.66
2023-02-17T10:45:06.598Z,100908.97
2023-02-17T10:47:36.902Z,100903.63
2023-02-17T10:50:08.252Z,100908.06
2023-02-17T10:52:39.537Z,100904.72
2023-02-17T10:55:22.928Z,100906.50
2023-02-17T10:57:58.481Z,100900.19
2023-02-17T11:00:25.262Z,100894.91
2023-02-17T11:02:53.980Z,100894.22
2023-02-17T11:05:32.684Z,100895.03
2023-02-17T11:08:06.490Z,100895.84
2023-02-17T11:10:34.256Z,100891.50
2023-02-17T11:13:02.986Z,100883.66
2023-02-17T11:15:37.412Z,100881.03
2023-02-17T11:18:11.968Z,100867.75
2023-02-17T11:20:39.340Z,100861.72
2023-02-17T11:25:35.998Z,100867.91
2023-02-17T11:28:06.578Z,100874.28
2023-02-17T11:30:34.948Z,100875.13
2023-02-17T11:33:12.879Z,100874.28
2023-02-17T11:35:42.587Z,100860.28
2023-02-17T11:38:16.330Z,100854.16
2023-02-17T11:40:53.486Z,100848.66
2023-02-17T11:43:20.119Z,100844.41
2023-02-17T11:45:46.787Z,100845.22
2023-02-17T11:48:34.638Z,100840.91
2023-02-17T11:51:35.967Z,100831.88
2023-02-17T11:54:25.191Z,100839.81
2023-02-17T11:57:20.628Z,100836.53
2023-02-17T12:00:10.624Z,100824.19
2023-02-17T12:03:06.361Z,100823.53
2023-02-17T12:05:38.775Z,100819.69
2023-02-17T12:08:27.264Z,100819.91
2023-02-17T12:10:59.821Z,100819.13
2023-02-17T12:13:52.073Z,100812.13
2023-02-17T12:16:21.757Z,100805.06
2023-02-17T12:19:05.620Z,100799.00
2023-02-17T12:21:54.366Z,100799.75
2023-02-17T12:24:48.790Z,100797.91
2023-02-17T12:27:46.013Z,100781.38
2023-02-17T12:30:43.660Z,100784.56
2023-02-17T12:33:31.788Z,100780.91
2023-02-17T12:36:08.640Z,100772.31
2023-02-17T12:38:41.344Z,100775.06
2023-02-17T12:41:28.081Z,100779.66
2023-02-17T12:44:26.759Z,100773.59
2023-02-17T12:46:57.562Z,100774.84
2023-02-17T12:49:31.875Z,100772.28
2023-02-17T12:52:06.574Z,100773.47
2023-02-17T12:54:38.707Z,100779.75
2023-02-17T12:57:48.348Z,100766.56
2023-02-17T13:00:26.955Z,100766.44
2023-02-17T13:02:58.531Z,100764.88
2023-02-17T13:05:48.468Z,100765.47
2023-02-17T13:08:36.886Z,100764.06
2023-02-17T13:11:14.738Z,100771.06
2023-02-17T13:13:41.473Z,100773.03
2023-02-17T13:16:09.917Z,100774.38
2023-02-17T13:18:41.740Z,100778.16
2023-02-17T13:21:20.504Z,100759.97
2023-02-17T13:24:06.001Z,100763.44
2023-02-17T13:26:38.249Z,100773.91
2023-02-17T13:29:09.633Z,100777.88
2023-02-17T13:31:59.034Z,100772.53
2023-02-17T13:34:27.069Z,100769.97
2023-02-17T13:36:53.912Z,100770.41
2023-02-17T13:39:26.415Z,100779.91
2023-02-17T13:41:56.006Z,100768.16
2023-02-17T13:44:27.547Z,100776.13
2023-02-17T13:47:17.375Z,100775.00
2023-02-17T13:49:52.566Z,100767.75
2023-02-17T13:52:25.488Z,100765.09
2023-02-17T13:54:58.581Z,100753.84
2023-02-17T13:57:34.395Z,100748.06
2023-02-17T14:00:10.639Z,100744.94
2023-02-17T14:02:45.704Z,100729.97
2023-02-17T14:05:20.223Z,100728.94
2023-02-17T14:07:48.769Z,100722.50
2023-02-17T14:10:20.961Z,100729.78
2023-02-17T14:12:47.848Z,100722.94
2023-02-17T14:15:20.072Z,100718.34
2023-02-17T14:17:46.966Z,100722.06
2023-02-17T14:20:28.907Z,100720.94
2023-02-17T14:23:06.280Z,100711.09
2023-02-17T14:25:39.309Z,100715.50
2023-02-17T14:28:21.531Z,100717.81
2023-02-17T14:30:48.937Z,100714.97
2023-02-17T14:33:15.543Z,100716.28
2023-02-17T14:36:01.014Z,100717.47
2023-02-17T14:38:35.965Z,100719.22
2023-02-17T14:41:04.337Z,100712.50
2023-02-17T14:43:30.999Z,100708.31
2023-02-17T14:45:57.714Z,100711.66
2023-02-17T14:48:26.160Z,100712.44
2023-02-17T14:50:56.795Z,100706.66
2023-02-17T14:53:27.575Z,100709.78
2023-02-17T14:56:01.175Z,100712.44
2023-02-17T14:58:30.013Z,100706.81
2023-02-17T15:00:57.496Z,100690.16
2023-02-17T15:03:24.133Z,100693.13
2023-02-17T15:05:51.098Z,100689.72
2023-02-17T15:08:21.580Z,100698.50
2023-02-17T15:10:49.611Z,100698.13
2023-02-17T15:13:21.567Z,100684.31
2023-02-17T15:15:48.796Z,100678.22
2023-02-17T15:18:17.677Z,100673.94
2023-02-17T15:20:47.465Z,100671.13
2023-02-17T15:23:17.922Z,100675.38
2023-02-17T15:25:45.285Z,100660.69
2023-02-17T15:28:19.842Z,100660.03
2023-02-17T15:30:53.577Z,100655.72
2023-02-17T15:33:21.553Z,100648.56
2023-02-17T15:35:51.784Z,100651.00
2023-02-17T15:38:18.481Z,100657.97
2023-02-17T15:40:45.380Z,100661.13
2023-02-17T15:43:19.110Z,100655.28
2023-02-17T15:45:45.901Z,100648.13
2023-02-17T15:48:21.783Z,100650.63
2023-02-17T15:50:48.507Z,100652.41
2023-02-17T15:53:15.287Z,100651.03
2023-02-17T15:55:42.336Z,100656.56
2023-02-17T15:58:28.105Z,100668.72
2023-02-17T16:01:00.377Z,100666.53
2023-02-17T16:03:27.309Z,100666.00
2023-02-17T16:05:53.931Z,100658.50
2023-02-17T16:08:20.684Z,100659.38
2023-02-17T16:10:47.468Z,100658.88
2023-02-17T16:13:16.532Z,100655.09
2023-02-17T16:15:46.252Z,100660.25
2023-02-17T16:18:23.668Z,100651.75
2023-02-17T16:20:51.710Z,100644.41
2023-02-17T16:23:18.339Z,100651.34
2023-02-17T16:25:46.847Z,100655.00
2023-02-17T16:28:19.211Z,100639.75
2023-02-17T16:30:46.067Z,100643.69
2023-02-17T16:33:13.501Z,100636.88
2023-02-17T16:35:40.117Z,100644.78
2023-02-17T16:38:14.215Z,100636.63
2023-02-17T16:40:45.324Z,100636.06
2023-02-17T16:43:11.920Z,100643.16
2023-02-17T16:45:54.342Z,100639.13
2023-02-17T16:48:26.990Z,100640.25
2023-02-17T16:50:53.734Z,100624.25
2023-02-17T16:53:21.064Z,100630.63
2023-02-17T16:55:48.636Z,100623.59
2023-02-17T16:58:21.507Z,100622.66
2023-02-17T17:00:51.744Z,100628.03
2023-02-17T17:03:19.901Z,100629.59
2023-02-17T17:05:46.546Z,100635.00
2023-02-17T17:08:15.562Z,100618.63
2023-02-17T17:10:44.045Z,100611.34
2023-02-17T17:13:12.244Z,100602.44
2023-02-17T17:15:43.649Z,100607.00
2023-02-17T17:18:19.556Z,100600.22
2023-02-17T17:20:46.440Z,100597.44
2023-02-17T17:23:14.977Z,100593.00
2023-02-17T17:25:44.307Z,100590.41
2023-02-17T17:28:17.095Z,100582.94
2023-02-17T17:30:43.724Z,100578.97
2023-02-17T17:33:10.430Z,100580.03
2023-02-17T17:35:37.120Z,100572.22
2023-02-17T17:38:04.209Z,100581.34
2023-02-17T17:40:35.869Z,100587.16
2023-02-17T17:43:02.545Z,100584.34
2023-02-17T17:45:29.217Z,100586.06
2023-02-17T17:47:55.821Z,100588.28
2023-02-17T17:50:24.400Z,100594.44
2023-02-17T17:52:50.998Z,100588.53
2023-02-17T17:55:17.750Z,100594.91
2023-02-17T17:57:45.684Z,100589.09
2023-02-17T18:00:14.948Z,100585.72
2023-02-17T18:02:41.882Z,100577.25
2023-02-17T18:05:09.711Z,100576.16
2023-02-17T18:07:38.532Z,100580.03
2023-02-17T18:10:08.158Z,100577.16
2023-02-17T18:12:35.404Z,100564.09
2023-02-17T18:15:03.533Z,100562.84
2023-02-17T18:17:33.983Z,100560.09
2023-02-17T18:20:01.080Z,100570.31
2023-02-17T18:22:27.976Z,100568.41
2023-02-17T18:24:55.147Z,100570.53
2023-02-17T18:27:22.210Z,100565.88
2023-02-17T18:29:49.724Z,100564.16
2023-02-17T18:32:16.359Z,100558.53
2023-02-17T18:34:43.082Z,100564.16
2023-02-17T18:37:09.669Z,100563.22
2023-02-17T18:39:36.402Z,100559.94
2023-02-17T18:42:03.167Z,100558.66
2023-02-17T18:44:29.828Z,100548.56
2023-02-17T18:46:56.427Z,100558.38
2023-02-17T18:49:23.060Z,100554.84
2023-02-17T18:51:51.159Z,100544.06
2023-02-17T18:54:17.833Z,100542.84
2023-02-17T18:56:44.529Z,100545.50
2023-02-17T18:59:15.854Z,100542.59
2023-02-17T19:01:42.542Z,100537.00
2023-02-17T19:04:10.024Z,100531.38
2023-02-17T19:06:36.679Z,100535.22
2023-02-17T19:09:03.999Z,100522.63
2023-02-17T19:11:31.393Z,100531.28
2023-02-17T19:14:00.596Z,100530.63
2023-02-17T19:16:31.545Z,100526.03
2023-02-17T19:18:58.947Z,100529.34
2023-02-17T19:21:25.833Z,100526.66
2023-02-17T19:23:52.835Z,100511.97
2023-02-17T19:26:20.588Z,100512.13
2023-02-17T19:28:47.604Z,100517.03
2023-02-17T19:31:20.512Z,100508.59
2023-02-17T19:33:47.672Z,100528.59
2023-02-17T19:36:17.858Z,100528.16
2023-02-17T19:38:45.074Z,100520.97
2023-02-17T19:41:13.007Z,100519.97
2023-02-17T19:43:43.069Z,100516.66
2023-02-17T19:46:15.025Z,100520.84
2023-02-17T19:48:42.272Z,100531.69
2023-02-17T19:51:10.065Z,100522.78
2023-02-17T19:53:37.098Z,100520.47
2023-02-17T19:56:12.531Z,100510.94
2023-02-17T19:58:40.852Z,100520.72
2023-02-17T20:01:10.387Z,100507.19
2023-02-17T20:03:37.221Z,100500.88
2023-02-17T20:06:11.982Z,100490.34
2023-02-17T20:08:39.018Z,100481.69
2023-02-17T20:11:12.540Z,100465.72
2023-02-17T20:13:45.739Z,100470.03
2023-02-17T20:16:14.567Z,100451.72
2023-02-17T20:18:44.147Z,100456.34
2023-02-17T20:21:11.735Z,100447.16
2023-02-17T20:23:38.373Z,100450.03
2023-02-17T20:26:11.797Z,100446.19
2023-02-17T20:28:38.720Z,100436.84
2023-02-17T20:31:06.407Z,100430.41
2023-02-17T20:33:33.309Z,100427.28
2023-02-17T20:36:00.559Z,100427.09
2023-02-17T20:38:27.421Z,100423.63
2023-02-17T20:40:54.421Z,100421.19
2023-02-17T20:43:21.142Z,100408.00
2023-02-17T20:45:48.880Z,100407.13
2023-02-17T20:48:16.557Z,100414.91
2023-02-17T20:50:44.345Z,100415.19
2023-02-17T20:53:11.285Z,100409.72
2023-02-17T20:55:38.238Z,100402.72
2023-02-17T20:58:04.895Z,100410.25
2023-02-17T21:00:31.710Z,100413.78
2023-02-17T21:02:58.411Z,100408.56
2023-02-17T21:05:25.205Z,100396.31
2023-02-17T21:07:52.385Z,100403.31
2023-02-17T21:10:22.292Z,100405.31
2023-02-17T21:12:50.165Z,100399.63
2023-02-17T21:15:16.868Z,100403.69
2023-02-17T21:17:43.651Z,100399.59
2023-02-17T21:20:13.218Z,100416.00
2023-02-17T21:22:40.511Z,100401.81
2023-02-17T21:25:07.945Z,100392.91
2023-02-17T21:27:35.009Z,100401.00
2023-02-17T21:30:02.080Z,100399.97
2023-02-17T21:32:28.792Z,100403.53
2023-02-17T21:34:55.826Z,100404.31
2023-02-17T21:37:22.445Z,100406.06
2023-02-17T21:39:49.079Z,100407.81
2023-02-17T21:42:16.155Z,100422.53
2023-02-17T21:44:42.768Z,100433.66
2023-02-17T21:47:09.733Z,100427.72
2023-02-17T21:49:36.410Z,100426.66
2023-02-17T21:52:03.408Z,100437.03
2023-02-17T21:54:30.083Z,100430.81
2023-02-17T21:56:56.707Z,100430.66
2023-02-17T21:59:23.662Z,100436.75
2023-02-17T22:01:50.312Z,100422.91
2023-02-17T22:04:17.033Z,100417.75
2023-02-17T22:06:44.842Z,100434.63
2023-02-17T22:09:13.649Z,100437.59
2023-02-17T22:11:42.482Z,100445.31
2023-02-17T22:14:13.082Z,100442.72
2023-02-17T22:16:40.359Z,100457.84
2023-02-17T22:19:08.712Z,100443.97
2023-02-17T22:21:35.415Z,100437.28
2023-02-17T22:24:02.427Z,100439.22
2023-02-17T22:26:30.348Z,100423.59
2023-02-17T22:28:57.553Z,100425.06
2023-02-17T22:31:26.827Z,100427.84
2023-02-17T22:33:53.691Z,100422.75
2023-02-17T22:36:21.871Z,100425.25
2023-02-17T22:38:49.448Z,100428.88
2023-02-17T22:41:19.453Z,100427.69
2023-02-17T22:43:47.449Z,100427.44
2023-02-17T22:46:15.878Z,100433.22
2023-02-17T22:48:46.469Z,100436.28
2023-02-17T22:51:16.203Z,100437.41
2023-02-17T22:53:43.017Z,100431.13
2023-02-17T22:56:10.612Z,100427.84
2023-02-17T22:58:37.410Z,100435.69
2023-02-17T23:01:07.972Z,100438.53
2023-02-17T23:03:34.869Z,100437.47
2023-02-17T23:06:07.614Z,100433.34
2023-02-17T23:08:35.093Z,100430.91
2023-02-17T23:11:05.756Z,100424.19
2023-02-17T23:13:33.520Z,100422.75
2023-02-17T23:16:00.206Z,100425.13
2023-02-17T23:18:30.018Z,100416.47
2023-02-17T23:20:57.092Z,100410.69
2023-02-17T23:23:23.768Z,100400.81
2023-02-17T23:25:53.938Z,100394.72
2023-02-17T23:28:22.873Z,100382.13
2023-02-17T23:30:49.940Z,100386.94
2023-02-17T23:33:20.577Z,100400.13
2023-02-17T23:35:47.563Z,100380.47
2023-02-17T23:38:17.631Z,100373.69
2023-02-17T23:40:49.117Z,100378.78
2023-02-17T23:43:16.289Z,100371.91
2023-02-17T23:45:43.340Z,100370.72
2023-02-17T23:48:10.663Z,100367.06
2023-02-17T23:50:37.496Z,100375.66
2023-02-17T23:53:04.225Z,100370.44
2023-02-17T23:55:31.439Z,100371.97
2023-02-17T23:57:58.234Z,100366.44
